Time;durP1;ratioP1;P1;durP2;ratioP2;P2;SDS_P1;SDS_P2;PMS_P1;PMS_P2;Temp;Humidity;BMP_temperature;BMP_pressure;BME280_temperature;BME280_humidity;BME280_pressure;Samples;Min_cycle;Max_cycle;Signal;HPM_P1;HPM_P2
2022/01/14 00:00:07;;;;;;;8.60;5.97;;;;;;;-2.34;100.00;97687.44;5072367;28;24480;-76
2022/01/14 00:02:34;;;;;;;5.78;5.18;;;;;;;-2.27;100.00;97691.78;5072308;28;24808;-76
2022/01/14 00:05:00;;;;;;;6.35;5.30;;;;;;;-2.39;100.00;97691.56;5072293;28;24472;-76
2022/01/14 00:07:27;;;;;;;6.50;5.05;;;;;;;-2.34;100.00;97694.19;5072243;28;24429;-76
2022/01/14 00:09:54;;;;;;;7.07;5.30;;;;;;;-2.32;100.00;97698.47;5072230;28;24460;-76
2022/01/14 00:12:26;;;;;;;6.40;5.70;;;;;;;-2.31;100.00;97697.66;5072152;28;24529;-77
2022/01/14 00:15:11;;;;;;;7.35;5.80;;;;;;;-2.32;100.00;97684.94;5071694;28;25014;-76
2022/01/14 00:17:38;;;;;;;8.32;6.10;;;;;;;-2.22;100.00;97687.69;5071998;28;24429;-76
2022/01/14 00:20:05;;;;;;;8.02;5.57;;;;;;;-2.19;100.00;97691.94;5071869;28;24784;-76
2022/01/14 00:22:32;;;;;;;6.73;6.03;;;;;;;-2.20;100.00;97690.22;5072006;28;24480;-76
2022/01/14 00:33:16;;;;;;;7.60;5.45;;;;;;;-2.35;100.00;97678.13;5071747;28;24873;-76
2022/01/14 00:35:43;;;;;;;8.38;6.10;;;;;;;-2.36;100.00;97681.50;5071157;28;24453;-76
2022/01/14 00:38:10;;;;;;;9.00;6.07;;;;;;;-2.42;100.00;97681.38;5071577;28;24430;-76
2022/01/14 00:40:37;;;;;;;7.72;5.90;;;;;;;-2.36;100.00;97673.88;5071430;28;24522;-75
2022/01/14 00:43:05;;;;;;;9.70;5.88;;;;;;;-2.30;100.00;97675.66;5071310;28;24423;-76
2022/01/14 00:45:32;;;;;;;8.32;5.95;;;;;;;-2.22;100.00;97679.22;5071251;28;24468;-76
2022/01/14 00:48:00;;;;;;;7.30;5.60;;;;;;;-2.23;100.00;97674.94;5071304;28;24422;-76
2022/01/14 00:50:26;;;;;;;6.65;5.70;;;;;;;-2.12;100.00;97672.59;5071209;28;24430;-76
2022/01/14 00:52:53;;;;;;;6.88;6.10;;;;;;;-2.13;100.00;97670.91;5071419;28;24433;-76
2022/01/14 00:55:26;;;;;;;9.07;5.80;;;;;;;-2.09;100.00;97670.97;5071140;28;24457;-75
2022/01/14 01:00:39;;;;;;;7.25;5.68;;;;;;;-2.07;100.00;97668.47;5071105;28;24456;-75
2022/01/14 01:03:05;;;;;;;7.13;5.55;;;;;;;-2.09;100.00;97665.03;5070914;28;24414;-75
2022/01/14 01:05:32;;;;;;;7.77;5.50;;;;;;;-2.22;100.00;97671.59;5070964;28;24476;-76
2022/01/14 01:08:04;;;;;;;7.30;5.80;;;;;;;-2.23;100.00;97665.63;5070944;28;24464;-76
2022/01/14 01:10:31;;;;;;;8.43;6.07;;;;;;;-2.31;100.00;97669.72;5071310;28;24776;-76
2022/01/14 01:13:03;;;;;;;8.73;6.07;;;;;;;-2.24;100.00;97669.00;5070889;28;24442;-76
2022/01/14 01:15:30;;;;;;;9.38;6.03;;;;;;;-2.46;100.00;97677.06;5071011;28;24554;-75
2022/01/14 01:17:58;;;;;;;6.63;5.68;;;;;;;-2.51;100.00;97669.38;5070880;28;24422;-76
2022/01/14 01:20:24;;;;;;;8.90;6.25;;;;;;;-2.61;100.00;97653.94;5070979;28;24449;-75
2022/01/14 01:22:54;;;;;;;5.65;5.05;;;;;;;-2.62;100.00;97662.41;5070997;28;24431;-76
2022/01/14 01:25:24;;;;;;;8.02;5.15;;;;;;;-2.54;100.00;97659.16;5070595;28;25053;-76
2022/01/14 01:27:53;;;;;;;9.90;5.47;;;;;;;-2.46;100.00;97652.53;5070455;28;24419;-76
2022/01/14 01:30:49;;;;;;;6.85;5.15;;;;;;;-2.44;100.00;97653.44;5070867;28;24543;-76
2022/01/14 01:33:15;;;;;;;6.38;5.13;;;;;;;-2.47;100.00;97660.13;5070356;28;24417;-76
2022/01/14 01:35:42;;;;;;;7.18;4.93;;;;;;;-2.42;100.00;97665.28;5070485;28;24454;-76
2022/01/14 01:38:15;;;;;;;6.85;5.35;;;;;;;-2.39;100.00;97656.06;5070481;28;24951;-76
2022/01/14 01:40:42;;;;;;;6.90;4.72;;;;;;;-2.33;100.00;97658.72;5070935;28;24419;-76
2022/01/14 01:43:10;;;;;;;6.15;5.10;;;;;;;-2.33;100.00;97661.25;5070659;28;24433;-76
2022/01/14 01:45:37;;;;;;;7.90;5.90;;;;;;;-2.32;100.00;97667.19;5070536;28;24519;-76
2022/01/14 01:48:03;;;;;;;8.23;5.90;;;;;;;-2.37;100.00;97662.03;5070327;28;24415;-76
2022/01/14 01:50:32;;;;;;;7.82;5.32;;;;;;;-2.45;100.00;97659.34;5069611;28;24418;-76
2022/01/14 01:52:59;;;;;;;8.95;5.45;;;;;;;-2.72;100.00;97662.19;5070168;28;24882;-76
2022/01/14 01:55:25;;;;;;;9.32;5.50;;;;;;;-2.78;100.00;97661.22;5070527;28;24493;-76
2022/01/14 01:57:54;;;;;;;8.00;6.20;;;;;;;-2.63;100.00;97664.06;5070045;28;24944;-76
2022/01/14 02:00:23;;;;;;;7.53;5.75;;;;;;;-2.53;100.00;97671.00;5070543;28;24796;-76
2022/01/14 02:02:51;;;;;;;8.83;5.80;;;;;;;-2.56;100.00;97667.56;5070316;28;24438;-76
2022/01/14 02:05:17;;;;;;;7.55;5.70;;;;;;;-2.56;100.00;97667.56;5070016;28;24827;-75
2022/01/14 02:07:46;;;;;;;9.48;5.10;;;;;;;-2.68;100.00;97676.66;5069726;28;24839;-76
2022/01/14 02:10:14;;;;;;;5.55;5.05;;;;;;;-2.64;100.00;97671.63;5070384;28;24827;-76
2022/01/14 02:12:48;;;;;;;5.30;4.70;;;;;;;-2.60;100.00;97669.19;5070271;28;24465;-76
2022/01/14 02:15:27;;;;;;;6.53;5.47;;;;;;;-2.52;100.00;97667.69;5070063;28;24458;-76
2022/01/14 02:18:25;;;;;;;7.47;5.50;;;;;;;-2.52;100.00;97662.59;5070072;28;24479;-75
2022/01/14 02:23:39;;;;;;;8.40;5.97;;;;;;;-2.53;100.00;97658.34;5069965;28;24422;-76
2022/01/14 02:26:06;;;;;;;8.35;6.32;;;;;;;-2.51;100.00;97660.91;5069880;28;24523;-76
2022/01/14 02:28:32;;;;;;;8.07;6.63;;;;;;;-2.55;100.00;97654.06;5070061;28;25029;-76
2022/01/14 02:30:59;;;;;;;10.03;6.80;;;;;;;-2.56;100.00;97655.75;5070079;28;24839;-76
2022/01/14 02:33:25;;;;;;;11.70;7.50;;;;;;;-2.51;100.00;97658.38;5070150;28;24418;-76
2022/01/14 02:35:54;;;;;;;8.25;6.93;;;;;;;-2.50;100.00;97650.78;5069592;28;24447;-76
2022/01/14 02:38:20;;;;;;;8.57;7.03;;;;;;;-2.55;100.00;97654.06;5070257;28;24425;-76
2022/01/14 02:40:48;;;;;;;12.23;7.90;;;;;;;-2.63;100.00;97653.94;5070062;28;24430;-76
2022/01/14 02:43:16;;;;;;;10.48;8.00;;;;;;;-2.65;100.00;97642.88;5069820;28;24815;-77
2022/01/14 02:45:47;;;;;;;9.27;7.18;;;;;;;-2.60;100.00;97650.56;5069888;28;24415;-76
2022/01/14 02:48:14;;;;;;;13.65;7.38;;;;;;;-2.59;100.00;97637.94;5070149;28;24430;-76
2022/01/14 02:50:51;;;;;;;12.88;6.63;;;;;;;-2.56;100.00;97639.66;5069873;28;24780;-76
2022/01/14 02:53:27;;;;;;;6.97;5.18;;;;;;;-2.69;100.00;97641.97;5069714;28;24429;-75
2022/01/14 02:55:55;;;;;;;5.50;4.90;;;;;;;-2.71;100.00;97636.03;5069471;28;24478;-75
2022/01/14 02:58:22;;;;;;;6.13;4.80;;;;;;;-2.69;100.00;97630.97;5069926;28;24800;-76
2022/01/14 03:00:52;;;;;;;7.38;4.78;;;;;;;-2.77;100.00;97624.91;5069791;28;24538;-76
2022/01/14 03:03:22;;;;;;;8.65;4.68;;;;;;;-2.75;100.00;97621.56;5072548;28;24505;-76
2022/01/14 03:05:50;;;;;;;4.97;4.45;;;;;;;-2.65;100.00;97619.22;5073039;28;24415;-76
2022/01/14 03:08:17;;;;;;;7.35;5.00;;;;;;;-2.58;100.00;97621.88;5073547;28;24450;-76
2022/01/14 03:10:47;;;;;;;5.80;4.88;;;;;;;-2.68;100.00;97614.94;5073522;28;24429;-76
2022/01/14 03:13:13;;;;;;;7.15;5.05;;;;;;;-2.69;100.00;97614.06;5073212;28;24426;-76
2022/01/14 03:15:40;;;;;;;5.07;4.43;;;;;;;-2.69;100.00;97619.16;5073009;28;24446;-75
2022/01/14 03:18:06;;;;;;;7.43;4.90;;;;;;;-2.84;100.00;97616.31;5073247;28;24437;-75
2022/01/14 03:20:49;;;;;;;9.15;5.32;;;;;;;-2.87;100.00;97618.78;5072984;28;24421;-76
2022/01/14 03:23:17;;;;;;;6.90;5.30;;;;;;;-2.99;100.00;97605.88;5072949;28;24431;-75
2022/01/14 03:25:49;;;;;;;6.30;5.07;;;;;;;-3.01;100.00;97608.38;5072793;28;24433;-75
2022/01/14 03:28:20;;;;;;;7.25;4.82;;;;;;;-2.95;100.00;97605.97;5073116;28;24430;-76
2022/01/14 03:30:47;;;;;;;7.22;4.90;;;;;;;-2.88;100.00;97599.34;5072812;28;24431;-76
2022/01/14 03:33:13;;;;;;;9.95;5.57;;;;;;;-2.85;100.00;97596.88;5072990;28;24417;-76
2022/01/14 03:35:40;;;;;;;6.60;5.25;;;;;;;-2.89;100.00;97595.13;5072414;28;24983;-75
2022/01/14 03:38:07;;;;;;;7.35;5.50;;;;;;;-2.94;100.00;97601.75;5072817;28;24495;-76
2022/01/14 03:40:33;;;;;;;8.82;5.25;;;;;;;-3.05;100.00;97608.28;5072898;28;24440;-76
2022/01/14 03:43:01;;;;;;;6.05;4.47;;;;;;;-3.04;100.00;97595.66;5072774;28;24526;-76
2022/01/14 03:45:27;;;;;;;5.82;4.82;;;;;;;-3.24;100.00;97596.94;5072481;28;24426;-74
2022/01/14 03:47:54;;;;;;;8.40;4.72;;;;;;;-3.20;100.00;97589.41;5072686;28;24430;-76
2022/01/14 03:50:20;;;;;;;4.93;4.30;;;;;;;-3.10;100.00;97582.88;5072640;28;24472;-76
2022/01/14 03:52:47;;;;;;;5.60;4.68;;;;;;;-3.01;100.00;97592.31;5072611;28;24433;-76
2022/01/14 03:55:13;;;;;;;6.10;4.57;;;;;;;-2.95;100.00;97587.38;5072281;28;24453;-76
2022/01/14 03:57:40;;;;;;;4.88;4.20;;;;;;;-2.92;100.00;97580.69;5072269;28;24415;-76
2022/01/14 04:00:09;;;;;;;9.48;5.28;;;;;;;-2.92;100.00;97583.22;5072235;28;24460;-76
2022/01/14 04:02:35;;;;;;;5.75;4.60;;;;;;;-2.81;100.00;97587.66;5072455;28;24449;-76
2022/01/14 04:05:02;;;;;;;5.40;4.43;;;;;;;-2.83;100.00;97585.06;5072317;28;24422;-76
2022/01/14 04:07:28;;;;;;;6.18;4.47;;;;;;;-2.82;100.00;97581.69;5072100;28;24418;-76
2022/01/14 04:09:55;;;;;;;5.45;4.38;;;;;;;-2.84;100.00;97588.44;5072155;28;24422;-76
2022/01/14 04:12:33;;;;;;;5.13;4.30;;;;;;;-2.87;100.00;97583.31;5071958;28;24423;-77
2022/01/14 04:17:45;;;;;;;6.43;4.55;;;;;;;-2.86;100.00;97574.84;5071999;28;24931;-76
2022/01/14 04:20:12;;;;;;;8.45;5.00;;;;;;;-2.82;100.00;97575.78;5071955;28;24966;-76
2022/01/14 04:22:39;;;;;;;8.05;4.63;;;;;;;-2.79;100.00;97569.06;5071817;28;24662;-76
2022/01/14 04:25:07;;;;;;;6.32;4.88;;;;;;;-2.77;100.00;97571.66;5071892;28;24446;-76
2022/01/14 04:27:33;;;;;;;5.67;4.37;;;;;;;-2.79;100.00;97569.06;5071518;28;24974;-76
2022/01/14 04:30:00;;;;;;;7.95;4.70;;;;;;;-2.72;100.00;97565.81;5071850;28;24421;-76
2022/01/14 04:32:26;;;;;;;5.28;4.63;;;;;;;-2.72;100.00;97573.44;5072018;28;24426;-75
2022/01/14 04:34:54;;;;;;;4.93;4.25;;;;;;;-2.85;100.00;97568.97;5071496;28;24418;-76
2022/01/14 04:37:22;;;;;;;7.65;4.85;;;;;;;-3.02;100.00;97566.13;5071236;28;24422;-75
2022/01/14 04:39:48;;;;;;;5.78;4.15;;;;;;;-3.00;100.00;97563.63;5071579;28;24421;-75
2022/01/14 04:42:15;;;;;;;5.47;4.53;;;;;;;-3.08;100.00;97568.53;5071577;28;24422;-76
2022/01/14 04:44:41;;;;;;;5.87;4.27;;;;;;;-3.07;100.00;97567.72;5071422;28;24475;-75
2022/01/14 04:47:17;;;;;;;7.47;4.45;;;;;;;-2.95;100.00;97570.47;5071200;28;24471;-76
2022/01/14 04:49:44;;;;;;;6.57;4.40;;;;;;;-2.87;100.00;97568.09;5071172;28;24951;-76
2022/01/14 04:52:11;;;;;;;6.18;4.78;;;;;;;-2.89;100.00;97569.75;5071216;28;24441;-75
2022/01/14 04:54:38;;;;;;;6.70;4.30;;;;;;;-2.94;100.00;97564.56;5071291;28;24442;-76
2022/01/14 04:57:05;;;;;;;7.55;4.57;;;;;;;-3.05;100.00;97558.44;5070905;28;24445;-75
2022/01/14 04:59:31;;;;;;;6.57;4.25;;;;;;;-3.08;100.00;97555.84;5071233;28;24433;-76
2022/01/14 05:01:58;;;;;;;5.30;4.30;;;;;;;-3.07;100.00;97552.50;5071195;28;24422;-75
2022/01/14 05:04:25;;;;;;;6.97;4.47;;;;;;;-3.08;100.00;97550.78;5070881;28;24438;-75
2022/01/14 05:06:57;;;;;;;6.38;4.07;;;;;;;-2.99;100.00;97547.59;5070662;28;24411;-76
2022/01/14 05:09:31;;;;;;;6.38;4.72;;;;;;;-2.96;100.00;97545.13;5070842;28;24952;-75
2022/01/14 05:12:05;;;;;;;5.63;5.00;;;;;;;-2.82;100.00;97545.34;5070536;28;25073;-76
2022/01/14 05:14:32;;;;;;;6.40;4.45;;;;;;;-2.89;100.00;97546.94;5070837;28;24433;-76
2022/01/14 05:16:58;;;;;;;5.00;4.20;;;;;;;-2.94;100.00;97543.44;5070424;28;24473;-75
2022/01/14 05:19:25;;;;;;;5.18;4.18;;;;;;;-2.95;100.00;97539.22;5072355;28;25179;-78
2022/01/14 05:21:51;;;;;;;7.83;4.93;;;;;;;-2.88;100.00;97543.56;5071918;28;24979;-77
2022/01/14 05:24:17;;;;;;;6.75;5.00;;;;;;;-2.89;100.00;97538.44;5071243;28;24423;-75
2022/01/14 05:26:45;;;;;;;8.25;5.15;;;;;;;-2.87;100.00;97540.19;5070497;28;24472;-76
2022/01/14 05:29:12;;;;;;;6.47;5.43;;;;;;;-2.98;100.00;97545.06;5070707;28;24423;-76
2022/01/14 05:31:46;;;;;;;7.07;5.22;;;;;;;-3.21;100.00;97541.25;5070682;28;24418;-76
2022/01/14 05:34:13;;;;;;;6.93;4.95;;;;;;;-3.25;100.00;97545.41;5071152;28;24418;-76
2022/01/14 05:36:40;;;;;;;6.28;4.85;;;;;;;-3.13;100.00;97538.88;5070594;28;24471;-76
2022/01/14 05:39:07;;;;;;;5.68;4.68;;;;;;;-3.04;100.00;97541.56;5070886;28;24430;-76
2022/01/14 05:41:34;;;;;;;7.13;5.05;;;;;;;-2.99;100.00;97539.97;5070827;28;24417;-75
2022/01/14 05:44:03;;;;;;;5.22;4.63;;;;;;;-3.04;100.00;97539.03;5070670;28;24415;-76
2022/01/14 05:46:30;;;;;;;6.90;5.68;;;;;;;-3.04;100.00;97542.44;5070363;28;24426;-75
2022/01/14 05:48:56;;;;;;;5.43;4.83;;;;;;;-3.11;100.00;97539.75;5071123;28;24419;-76
2022/01/14 05:51:22;;;;;;;5.28;4.38;;;;;;;-3.13;100.00;97536.31;5070841;28;24472;-76
2022/01/14 05:53:49;;;;;;;6.03;4.32;;;;;;;-3.28;100.00;97540.28;5070699;28;24430;-76
2022/01/14 05:56:15;;;;;;;5.82;4.10;;;;;;;-3.20;100.00;97545.50;5070058;28;24458;-76
2022/01/14 05:58:42;;;;;;;6.35;4.18;;;;;;;-3.22;100.00;97544.63;5070303;28;24792;-77
2022/01/14 06:01:10;;;;;;;6.07;4.50;;;;;;;-3.17;100.00;97545.56;5069896;28;24426;-76
2022/01/14 06:03:36;;;;;;;5.50;4.25;;;;;;;-3.14;100.00;97544.78;5070319;28;24441;-76
2022/01/14 06:06:03;;;;;;;6.03;4.30;;;;;;;-3.08;100.00;97544.88;5070762;28;24766;-75
2022/01/14 06:08:29;;;;;;;4.70;4.05;;;;;;;-3.05;100.00;97550.00;5070436;28;24422;-76
2022/01/14 06:10:56;;;;;;;5.47;4.33;;;;;;;-2.98;100.00;97547.59;5070377;28;24823;-75
2022/01/14 06:13:22;;;;;;;4.53;3.70;;;;;;;-3.00;100.00;97539.13;5069947;28;24422;-76
2022/01/14 06:15:48;;;;;;;5.70;3.70;;;;;;;-3.03;100.00;97533.16;5069749;28;24445;-75
2022/01/14 06:18:16;;;;;;;4.70;3.75;;;;;;;-3.03;100.00;97548.34;5070170;28;24423;-76
2022/01/14 06:20:43;;;;;;;4.82;4.03;;;;;;;-3.07;100.00;97537.31;5070357;28;24423;-77
2022/01/14 06:23:09;;;;;;;7.57;3.85;;;;;;;-3.10;100.00;97533.84;5069207;28;24553;-75
2022/01/14 06:25:36;;;;;;;5.32;4.03;;;;;;;-3.12;100.00;97538.03;5070118;28;24446;-77
2022/01/14 06:28:02;;;;;;;4.85;4.05;;;;;;;-3.26;100.00;97537.78;5050550;28;24415;-77
2022/01/14 06:30:29;;;;;;;6.67;5.27;;;;;;;-3.60;100.00;97533.69;5064638;28;24521;-76
2022/01/14 06:32:56;;;;;;;7.18;5.60;;;;;;;-3.70;100.00;97536.06;5066681;28;24995;-75
2022/01/14 06:35:24;;;;;;;5.70;4.50;;;;;;;-3.59;100.00;97533.75;5069834;28;24525;-76
2022/01/14 06:37:51;;;;;;;6.80;4.53;;;;;;;-3.45;100.00;97539.94;5070234;28;24805;-75
2022/01/14 06:40:18;;;;;;;6.93;4.72;;;;;;;-3.28;100.00;97540.28;5059105;28;24843;-76
2022/01/14 06:42:45;;;;;;;8.82;5.05;;;;;;;-3.23;100.00;97536.13;5073512;28;24789;-75
2022/01/14 06:45:12;;;;;;;6.15;4.85;;;;;;;-3.24;100.00;97531.91;5072628;28;24443;-76
2022/01/14 06:47:38;;;;;;;6.75;5.60;;;;;;;-3.34;100.00;97531.69;5075047;28;24847;-76
2022/01/14 06:50:05;;;;;;;6.97;5.38;;;;;;;-3.41;100.00;97533.28;5073524;28;24426;-76
2022/01/14 06:52:33;;;;;;;6.63;5.10;;;;;;;-3.36;100.00;97529.13;5072763;28;24823;-77
2022/01/14 06:54:59;;;;;;;7.68;4.82;;;;;;;-3.35;100.00;97533.38;5073682;28;24437;-76
2022/01/14 06:57:26;;;;;;;7.30;5.50;;;;;;;-3.25;100.00;97530.19;5085484;28;24486;-76
2022/01/14 06:59:53;;;;;;;6.53;5.10;;;;;;;-3.31;100.00;97526.69;5075590;28;24442;-76
2022/01/14 07:02:19;;;;;;;7.10;5.18;;;;;;;-3.29;100.00;97527.59;5073080;28;24437;-76
2022/01/14 07:04:45;;;;;;;5.70;4.65;;;;;;;-3.33;100.00;97529.22;5072984;28;24418;-76
2022/01/14 07:07:12;;;;;;;6.93;5.00;;;;;;;-3.49;100.00;97530.56;5071982;28;24458;-77
2022/01/14 07:09:55;;;;;;;8.77;5.20;;;;;;;-3.51;100.00;97533.91;5073364;28;24488;-77
2022/01/14 07:12:23;;;;;;;7.18;5.03;;;;;;;-3.47;100.00;97533.13;5074152;28;24900;-77
2022/01/14 07:14:49;;;;;;;6.20;4.22;;;;;;;-3.67;100.00;97533.59;5072932;28;24475;-77
2022/01/14 07:17:16;;;;;;;4.90;3.95;;;;;;;-3.71;100.00;97531.81;5073347;28;24442;-77
2022/01/14 07:19:42;;;;;;;5.37;4.30;;;;;;;-3.79;100.00;97540.91;5073155;28;24506;-76
2022/01/14 07:22:09;;;;;;;9.50;4.93;;;;;;;-3.79;100.00;97542.59;5072504;28;24423;-76
2022/01/14 07:24:36;;;;;;;6.13;5.03;;;;;;;-3.72;100.00;97547.81;5071809;28;24439;-76
2022/01/14 07:27:05;;;;;;;5.75;4.47;;;;;;;-3.56;100.00;97548.13;5072442;28;24419;-75
2022/01/14 07:29:31;;;;;;;8.00;4.40;;;;;;;-3.37;100.00;97557.84;5072320;28;24461;-75
2022/01/14 07:31:58;;;;;;;5.80;4.22;;;;;;;-3.25;100.00;97558.06;5072145;28;24442;-76
2022/01/14 07:34:25;;;;;;;4.18;3.72;;;;;;;-3.25;100.00;97565.69;5072233;28;24789;-76
2022/01/14 07:36:51;;;;;;;6.75;3.80;;;;;;;-3.27;100.00;97564.78;5071768;28;24450;-76
2022/01/14 07:39:19;;;;;;;5.53;4.20;;;;;;;-3.19;100.00;97565.81;5071588;28;24430;-75
2022/01/14 07:41:45;;;;;;;7.00;4.47;;;;;;;-3.09;100.00;97566.81;5072709;28;24445;-76
2022/01/14 07:44:14;;;;;;;5.65;4.43;;;;;;;-2.97;100.00;97563.66;5071759;28;24442;-76
2022/01/14 07:46:40;;;;;;;4.90;4.20;;;;;;;-2.84;100.00;97565.63;5071941;28;25206;-75
2022/01/14 07:49:07;;;;;;;6.40;4.17;;;;;;;-2.69;100.00;97570.09;5071962;28;24517;-77
2022/01/14 07:51:33;;;;;;;5.28;4.00;;;;;;;-2.57;100.00;97566.94;5072589;28;24427;-77
2022/01/14 07:54:04;;;;;;;5.90;4.97;;;;;;;-2.36;100.00;97557.16;5071760;28;24435;-75
2022/01/14 07:56:31;;;;;;;5.28;4.55;;;;;;;-2.21;100.00;97557.41;5071864;28;24537;-75
2022/01/14 07:58:58;;;;;;;5.80;4.35;;;;;;;-2.17;100.00;97565.06;5071578;28;24429;-75
2022/01/14 08:01:26;;;;;;;6.20;4.97;;;;;;;-2.13;100.00;97571.91;5071290;28;24847;-76
2022/01/14 08:03:53;;;;;;;6.75;4.35;;;;;;;-2.09;100.00;97561.81;5072235;28;24445;-77
2022/01/14 08:06:22;;;;;;;4.97;4.28;;;;;;;-2.10;100.00;97565.19;5073163;28;24425;-76
2022/01/14 08:08:48;;;;;;;7.95;4.35;;;;;;;-2.01;100.00;97572.06;5071824;28;24438;-76
2022/01/14 08:11:15;;;;;;;4.38;3.75;;;;;;;-1.98;100.00;97572.97;5072069;28;24986;-76
2022/01/14 08:13:41;;;;;;;6.32;3.90;;;;;;;-1.90;100.00;97572.25;5071807;28;24484;-76
2022/01/14 08:16:08;;;;;;;6.28;4.18;;;;;;;-1.81;100.00;97562.22;5070833;28;24438;-76
2022/01/14 08:18:36;;;;;;;6.63;3.63;;;;;;;-1.75;100.00;97575.84;5071820;28;24515;-76
2022/01/14 08:21:03;;;;;;;4.47;4.07;;;;;;;-1.62;100.00;97570.97;5072146;28;24551;-75
2022/01/14 08:23:29;;;;;;;6.53;4.30;;;;;;;-1.55;100.00;97573.59;5070752;28;25061;-76
2022/01/14 08:25:57;;;;;;;6.38;4.50;;;;;;;-1.46;100.00;97573.72;5070780;28;24419;-76
2022/01/14 08:28:24;;;;;;;4.35;3.80;;;;;;;-1.45;100.00;97574.56;5071465;28;24415;-75
2022/01/14 08:30:51;;;;;;;5.18;4.10;;;;;;;-1.39;100.00;97572.09;5069898;28;24438;-74
2022/01/14 08:33:18;;;;;;;5.35;4.28;;;;;;;-1.26;100.00;97571.44;5070778;28;24795;-76
2022/01/14 08:35:46;;;;;;;7.47;5.10;;;;;;;-1.13;100.00;97574.13;5070798;28;24768;-77
2022/01/14 08:38:13;;;;;;;7.63;6.20;;;;;;;-1.01;100.00;97577.66;5070309;28;24454;-76
2022/01/14 08:40:40;;;;;;;10.32;6.68;;;;;;;-1.00;100.00;97581.06;5070916;28;24940;-76
2022/01/14 08:43:06;;;;;;;8.10;6.10;;;;;;;-0.93;100.00;97582.81;5070679;28;24418;-76
2022/01/14 08:45:33;;;;;;;10.13;7.70;;;;;;;-0.89;100.00;97583.72;5069108;28;24446;-75
2022/01/14 08:48:00;;;;;;;10.35;8.57;;;;;;;-0.90;100.00;97576.94;5070273;28;24451;-75
2022/01/14 08:50:29;;;;;;;12.20;9.32;;;;;;;-0.94;100.00;97577.72;5070429;28;24421;-75
2022/01/14 08:52:58;;;;;;;11.45;9.18;;;;;;;-0.95;100.00;97576.03;5069745;28;24994;-76
2022/01/14 08:55:24;;;;;;;10.47;8.53;;;;;;;-1.06;100.00;97576.75;5069960;28;24986;-76
2022/01/14 08:57:52;;;;;;;9.80;8.00;;;;;;;-0.97;100.00;97570.91;5069650;28;24988;-75
2022/01/14 09:00:20;;;;;;;10.98;7.88;;;;;;;-0.84;100.00;97566.84;5062543;28;24438;-76
2022/01/14 09:02:46;;;;;;;8.93;7.15;;;;;;;-0.63;100.00;97568.72;5058919;28;24427;-76
2022/01/14 09:05:13;;;;;;;7.43;6.60;;;;;;;-0.59;100.00;97561.16;5049300;28;24836;-76
2022/01/14 09:07:40;;;;;;;11.93;8.10;;;;;;;-0.53;100.00;97558.66;5049535;28;24450;-76
2022/01/14 09:10:09;;;;;;;10.82;7.00;;;;;;;-0.44;100.00;97563.00;5065669;28;24437;-76
2022/01/14 09:12:36;;;;;;;9.60;7.18;;;;;;;-0.34;100.00;97564.75;5069652;28;24801;-76
2022/01/14 09:15:04;;;;;;;9.02;6.55;;;;;;;-0.02;100.00;97561.63;5069178;28;24461;-76
2022/01/14 09:17:32;;;;;;;7.53;5.55;;;;;;;0.03;100.00;97557.41;5069784;28;24542;-75
2022/01/14 09:19:58;;;;;;;10.07;6.55;;;;;;;0.28;100.00;97555.91;5069796;28;24784;-75
2022/01/14 09:22:28;;;;;;;16.13;11.33;;;;;;;0.54;100.00;97567.94;5069686;28;24437;-75
2022/01/14 09:24:57;;;;;;;13.43;10.50;;;;;;;0.86;100.00;97561.31;5008398;28;1728896;-75
2022/01/14 09:27:25;;;;;;;10.55;6.63;;;;;;;1.08;100.00;97561.38;5070220;28;24419;-75
2022/01/14 09:29:53;;;;;;;9.50;6.03;;;;;;;1.30;100.00;97562.28;5069174;28;24423;-76
2022/01/14 09:32:20;;;;;;;5.65;5.10;;;;;;;1.56;100.00;97559.75;5070359;28;24429;-76
2022/01/14 09:34:47;;;;;;;5.53;4.70;;;;;;;1.75;100.00;97563.22;5070433;28;24427;-76
2022/01/14 09:37:14;;;;;;;7.03;5.37;;;;;;;1.87;100.00;97558.94;5069563;28;24454;-76
2022/01/14 09:39:43;;;;;;;12.25;6.78;;;;;;;2.05;100.00;97559.81;5069080;28;24480;-76
2022/01/14 09:42:10;;;;;;;6.88;6.10;;;;;;;2.03;100.00;97557.22;5070655;28;24890;-77
2022/01/14 09:44:37;;;;;;;7.88;5.90;;;;;;;2.22;100.00;97564.88;5069280;28;24434;-77
2022/01/14 09:47:05;;;;;;;9.57;6.75;;;;;;;1.94;100.00;97567.47;5070096;28;24414;-76
2022/01/14 09:49:31;;;;;;;9.32;7.25;;;;;;;1.62;100.00;97565.75;5069956;28;24944;-76
2022/01/14 09:51:58;;;;;;;9.25;6.85;;;;;;;1.48;100.00;97571.66;5070014;28;24820;-76
2022/01/14 09:54:24;;;;;;;10.63;6.93;;;;;;;1.52;100.00;97570.81;5069465;28;24449;-75
2022/01/14 09:56:50;;;;;;;9.32;6.53;;;;;;;1.89;100.00;97567.47;5069931;28;24792;-76
2022/01/14 09:59:18;;;;;;;7.80;6.13;;;;;;;2.18;100.00;97575.09;5069532;28;24453;-76
2022/01/14 10:01:48;;;;;;;7.60;5.78;;;;;;;2.21;100.00;97571.72;5069806;28;24422;-76
2022/01/14 10:04:16;;;;;;;8.27;6.03;;;;;;;1.94;100.00;97577.69;5070092;28;24434;-76
2022/01/14 10:06:44;;;;;;;7.30;6.43;;;;;;;1.77;100.00;97574.25;5069653;28;24421;-77
2022/01/14 10:09:13;;;;;;;11.77;6.45;;;;;;;1.73;100.00;97581.06;5069908;28;24449;-77
2022/01/14 10:11:42;;;;;;;6.63;5.85;;;;;;;2.08;100.00;97576.00;5070694;28;24970;-76
2022/01/14 10:14:11;;;;;;;10.45;5.72;;;;;;;2.34;100.00;97565.75;5073145;28;24462;-75
2022/01/14 10:16:41;;;;;;;8.45;5.75;;;;;;;2.21;100.00;97568.31;5073860;28;24454;-76
2022/01/14 10:19:20;;;;;;;9.35;6.47;;;;;;;2.59;100.00;97568.22;5074406;28;24567;-78
2022/01/14 10:21:46;;;;;;;7.00;5.75;;;;;;;2.45;100.00;97570.84;5076542;28;24484;-78
2022/01/14 10:24:14;;;;;;;8.50;5.68;;;;;;;2.29;100.00;97571.69;5073492;28;24430;-76
2022/01/14 10:26:49;;;;;;;10.00;5.70;;;;;;;2.42;100.00;97575.94;5073926;28;24477;-76
2022/01/14 10:29:26;;;;;;;8.95;5.82;;;;;;;2.38;100.00;97566.59;5072537;28;24649;-77
2022/01/14 10:31:53;;;;;;;7.00;5.70;;;;;;;2.30;100.00;97570.84;5073392;28;24971;-76
2022/01/14 10:34:21;;;;;;;8.63;6.07;;;;;;;2.33;100.00;97561.44;5074146;28;24426;-75
2022/01/14 10:36:50;;;;;;;6.07;5.00;;;;;;;2.42;100.00;97564.00;5073547;28;24422;-76
2022/01/14 10:39:21;;;;;;;5.93;5.07;;;;;;;2.70;100.00;97563.09;5053593;28;24796;-76
2022/01/14 10:41:48;;;;;;;6.22;4.97;;;;;;;2.94;100.00;97559.59;5054190;28;25007;-76
2022/01/14 10:44:24;;;;;;;7.03;4.90;;;;;;;3.31;100.00;97545.75;5055683;28;24438;-77
2022/01/14 10:46:50;;;;;;;6.40;5.57;;;;;;;3.50;99.20;97541.38;5073385;28;24944;-76
2022/01/14 10:49:34;;;;;;;6.35;5.65;;;;;;;3.51;99.29;97550.75;5073513;28;24492;-76
2022/01/14 10:52:13;;;;;;;7.78;5.93;;;;;;;3.69;100.00;97543.81;5073309;28;24418;-76
2022/01/14 10:54:42;;;;;;;9.75;6.85;;;;;;;3.84;99.07;97546.25;5072197;28;24434;-75
2022/01/14 10:57:14;;;;;;;10.55;7.40;;;;;;;3.53;100.00;97543.06;5054972;28;24465;-75
2022/01/14 10:59:41;;;;;;;8.20;6.80;;;;;;;3.48;100.00;97543.06;5073240;28;24431;-75
2022/01/14 11:02:33;;;;;;;10.75;7.18;;;;;;;3.39;100.00;97543.16;5071829;23;24474;-76
2022/01/14 11:05:07;;;;;;;10.38;7.75;;;;;;;3.79;100.00;97538.59;5053483;28;24528;-76
2022/01/14 11:07:34;;;;;;;11.82;7.25;;;;;;;4.06;100.00;97531.53;5053543;28;24431;-76
2022/01/14 11:10:01;;;;;;;8.87;6.83;;;;;;;4.28;100.00;97533.03;5052923;28;24438;-76
2022/01/14 11:12:30;;;;;;;9.82;7.22;;;;;;;4.57;99.28;97529.34;5072797;28;24993;-76
2022/01/14 11:14:59;;;;;;;7.55;5.88;;;;;;;4.63;98.86;97524.13;5063178;28;24792;-76
2022/01/14 11:17:25;;;;;;;11.15;6.45;;;;;;;4.50;98.79;97520.00;5052643;28;24804;-76
2022/01/14 11:19:53;;;;;;;7.22;5.97;;;;;;;4.22;100.00;97520.25;5052945;28;24915;-76
2022/01/14 11:25:12;;;;;;;8.68;5.80;;;;;;;4.22;100.00;97509.16;5052674;28;24414;-76
2022/01/14 11:27:40;;;;;;;12.27;6.40;;;;;;;4.09;100.00;97501.59;5053225;28;24509;-76
2022/01/14 11:30:13;;;;;;;8.57;6.15;;;;;;;4.07;100.00;97498.19;5051833;28;24438;-77
2022/01/14 11:32:54;;;;;;;6.40;4.90;;;;;;;4.02;100.00;97494.81;5050774;28;24872;-76
2022/01/14 11:35:22;;;;;;;6.67;5.23;;;;;;;3.99;100.00;97494.00;5052269;28;24500;-77
2022/01/14 11:37:51;;;;;;;8.70;4.60;;;;;;;3.97;100.00;97485.47;5051666;28;24535;-76
2022/01/14 11:40:19;;;;;;;6.13;4.70;;;;;;;3.95;100.00;97484.66;5051656;28;24427;-76
2022/01/14 11:42:48;;;;;;;7.00;4.93;;;;;;;3.93;100.00;97476.97;5035028;28;24809;-76
2022/01/14 11:45:17;;;;;;;7.07;4.75;;;;;;;3.98;100.00;97464.97;5051474;28;24535;-75
2022/01/14 11:47:49;;;;;;;5.63;4.45;;;;;;;4.06;100.00;97473.41;5052094;28;24477;-77
2022/01/14 11:50:44;;;;;;;11.20;7.95;;;;;;;4.15;100.00;97466.50;5052427;28;24426;-75